Time;durP1;ratioP1;P1;durP2;ratioP2;P2;SDS_P1;SDS_P2;PMS_P1;PMS_P2;Temp;Humidity;BMP_temperature;BMP_pressure;BME280_temperature;BME280_humidity;BME280_pressure;Samples;Min_cycle;Max_cycle;Signal;HPM_P1;HPM_P2
2021/12/16 00:02:17;;;;;;;83.68;40.58;;;;;;;7.66;100.00;103409.63;5112225;28;20002;-84
2021/12/16 00:07:34;;;;;;;;;;;;;;;7.68;100.00;103409.66;5113951;28;20387;-83
2021/12/16 00:10:11;;;;;;;85.47;42.83;;;;;;;7.66;100.00;103409.63;5112728;28;19915;-84
2021/12/16 00:29:52;;;;;;;81.13;40.17;;;;;;;7.63;100.00;103409.53;5112522;28;19950;-84
2021/12/16 00:34:49;;;;;;;81.00;41.30;;;;;;;7.59;100.00;103407.69;5113039;28;20030;-84
2021/12/16 00:37:15;;;;;;;79.50;41.38;;;;;;;7.58;100.00;103405.91;5111188;28;20030;-85
2021/12/16 00:39:41;;;;;;;82.03;41.67;;;;;;;7.60;100.00;103409.44;5112480;28;20035;-84
2021/12/16 00:42:13;;;;;;;82.13;43.58;;;;;;;7.61;100.00;103411.19;5113235;28;20019;-83
2021/12/16 00:49:44;;;;;;;80.07;42.35;;;;;;;7.60;100.00;103414.63;5112690;28;20424;-84
2021/12/16 00:55:12;;;;;;;84.97;42.25;;;;;;;7.60;100.00;103419.84;5112834;28;20153;-85
2021/12/16 00:57:38;;;;;;;81.65;42.90;;;;;;;7.59;100.00;103410.28;5107362;28;20467;-84
2021/12/16 01:00:07;;;;;;;81.70;41.65;;;;;;;7.60;100.00;103411.16;5098623;28;20047;-84
2021/12/16 01:05:57;;;;;;;78.63;40.47;;;;;;;7.62;100.00;103420.78;5111913;28;20043;-84
2021/12/16 01:38:26;;;;;;;78.47;40.00;;;;;;;7.60;100.00;103419.84;5111956;28;20005;-84
2021/12/16 01:41:28;;;;;;;80.00;42.45;;;;;;;7.62;100.00;103425.06;5110711;28;20281;-84
2021/12/16 01:51:57;;;;;;;72.93;39.60;;;;;;;7.63;100.00;103450.22;5091665;28;20540;-85
2021/12/16 01:54:41;;;;;;;79.35;41.95;;;;;;;7.61;100.00;103449.28;5094200;28;20149;-84
2021/12/16 01:57:25;;;;;;;75.63;41.85;;;;;;;7.63;100.00;103443.28;5112318;28;20040;-84
2021/12/16 01:59:59;;;;;;;;;;;;;;;7.65;100.00;103445.91;5112462;28;20421;-85
2021/12/16 02:02:37;;;;;;;77.32;39.90;;;;;;;7.61;100.00;103444.94;5111344;28;20248;-84
2021/12/16 02:10:33;;;;;;;76.72;40.60;;;;;;;7.63;100.00;103450.22;5110837;28;20386;-84
2021/12/16 02:13:18;;;;;;;72.72;40.85;;;;;;;7.61;100.00;103449.28;5111608;28;20040;-84
2021/12/16 02:32:45;;;;;;;79.72;41.65;;;;;;;7.62;100.00;103464.91;5115284;28;20346;-84
2021/12/16 02:35:29;;;;;;;78.90;39.65;;;;;;;7.60;100.00;103461.38;5115727;28;20060;-84
2021/12/16 02:37:55;;;;;;;81.32;42.58;;;;;;;7.60;100.00;103463.97;5115130;28;20547;-83
2021/12/16 02:40:20;;;;;;;80.53;40.80;;;;;;;7.58;100.00;103470.81;5115629;28;20019;-83
2021/12/16 02:43:02;;;;;;;81.38;41.17;;;;;;;7.60;100.00;103465.69;5113876;28;20545;-84
2021/12/16 02:48:32;;;;;;;78.22;42.38;;;;;;;7.59;100.00;103472.59;5115218;28;20064;-84
2021/12/16 02:51:04;;;;;;;83.18;42.38;;;;;;;7.58;100.00;103481.19;5114161;28;20031;-84
2021/12/16 02:53:30;;;;;;;76.43;41.95;;;;;;;7.59;100.00;103479.50;5114248;28;20077;-84
2021/12/16 02:55:56;;;;;;;79.13;41.60;;;;;;;7.57;100.00;103479.44;5114958;28;20043;-84
2021/12/16 02:58:22;;;;;;;77.50;41.80;;;;;;;7.57;100.00;103478.56;5114343;28;20035;-84
2021/12/16 03:00:56;;;;;;;79.78;39.50;;;;;;;7.58;100.00;103482.91;5098023;28;20111;-84
2021/12/16 03:03:21;;;;;;;84.90;42.55;;;;;;;7.55;100.00;103467.25;5094425;28;20360;-84
2021/12/16 03:05:47;;;;;;;73.32;38.72;;;;;;;7.58;100.00;103473.41;5093102;28;20020;-84
2021/12/16 03:08:12;;;;;;;77.45;40.55;;;;;;;7.53;100.00;103469.81;5094041;28;20360;-84
2021/12/16 03:11:03;;;;;;;71.38;40.70;;;;;;;7.55;100.00;103472.44;5093250;28;20020;-84
2021/12/16 03:13:35;;;;;;;75.00;41.35;;;;;;;7.56;100.00;103475.09;5094181;28;20047;-84
2021/12/16 03:18:43;;;;;;;75.60;39.90;;;;;;;7.53;100.00;103469.81;5093429;28;20124;-84
2021/12/16 03:21:27;;;;;;;73.70;39.58;;;;;;;7.51;100.00;103474.06;5094358;28;20028;-84
2021/12/16 03:27:08;;;;;;;73.15;39.47;;;;;;;7.49;100.00;103471.44;5113120;28;20043;-84
2021/12/16 03:32:36;;;;;;;68.57;38.65;;;;;;;7.51;100.00;103481.84;5105957;28;20109;-84
2021/12/16 03:37:51;;;;;;;74.05;39.58;;;;;;;7.51;100.00;103484.44;5093945;28;20467;-84
2021/12/16 03:40:17;;;;;;;75.93;41.10;;;;;;;7.47;100.00;103473.09;5093102;28;20023;-84
2021/12/16 03:42:50;;;;;;;75.38;40.88;;;;;;;7.50;100.00;103477.50;5092923;28;20028;-84
2021/12/16 03:48:20;;;;;;;74.57;40.28;;;;;;;7.49;100.00;103473.16;5111439;28;20109;-85
2021/12/16 03:50:45;;;;;;;72.50;38.72;;;;;;;7.49;100.00;103473.16;5111454;28;20024;-84
2021/12/16 03:53:14;;;;;;;73.70;41.08;;;;;;;7.47;100.00;103485.19;5113175;28;20028;-84
2021/12/16 03:55:39;;;;;;;76.90;41.67;;;;;;;7.44;100.00;103479.91;5113343;28;20514;-84
2021/12/16 03:58:05;;;;;;;84.95;43.38;;;;;;;7.49;100.00;103494.81;5114023;28;20127;-84
2021/12/16 04:00:34;;;;;;;76.80;42.35;;;;;;;7.49;100.00;103501.72;5113066;28;20058;-84
2021/12/16 04:03:00;;;;;;;78.97;41.25;;;;;;;7.49;100.00;103502.59;5113445;28;20391;-84
2021/12/16 04:05:26;;;;;;;76.13;40.33;;;;;;;7.47;100.00;103501.66;5112431;28;20020;-84
2021/12/16 04:07:51;;;;;;;81.18;42.05;;;;;;;7.46;100.00;103499.00;5112753;28;20019;-84
2021/12/16 04:10:42;;;;;;;77.07;41.92;;;;;;;7.45;100.00;103490.31;5113794;28;20484;-84
2021/12/16 04:13:12;;;;;;;81.75;40.92;;;;;;;7.48;100.00;103492.13;5113819;28;20027;-84
2021/12/16 04:15:37;;;;;;;77.95;39.97;;;;;;;7.48;100.00;103495.59;5112400;28;20015;-84
2021/12/16 04:18:03;;;;;;;71.35;41.05;;;;;;;7.47;100.00;103500.75;5113511;28;20409;-84
2021/12/16 04:20:29;;;;;;;69.20;38.58;;;;;;;7.46;100.00;103505.09;5109197;28;20032;-84
2021/12/16 04:22:54;;;;;;;81.15;41.95;;;;;;;7.47;100.00;103500.75;5111725;28;20023;-84
2021/12/16 04:25:30;;;;;;;87.68;41.40;;;;;;;7.43;100.00;103492.00;5113423;28;20390;-84
2021/12/16 04:27:59;;;;;;;74.80;39.58;;;;;;;7.40;100.00;103498.81;5112980;28;20391;-84
2021/12/16 04:30:26;;;;;;;69.28;38.25;;;;;;;7.36;100.00;103502.16;5113183;28;20023;-84
2021/12/16 04:32:52;;;;;;;70.30;38.47;;;;;;;7.37;100.00;103502.19;5113020;27;20020;-84
2021/12/16 04:35:18;;;;;;;81.75;41.78;;;;;;;7.35;100.00;103498.66;5111093;28;20031;-84
2021/12/16 04:37:44;;;;;;;74.78;39.33;;;;;;;7.32;100.00;103490.75;5112790;28;20498;-84
2021/12/16 04:40:11;;;;;;;69.40;37.65;;;;;;;7.27;100.00;103492.34;5113019;28;20111;-84
2021/12/16 04:42:38;;;;;;;77.68;40.50;;;;;;;7.26;100.00;103499.25;5111897;28;20027;-84
2021/12/16 04:45:09;;;;;;;72.07;40.42;;;;;;;7.26;100.00;103493.19;5112916;28;20471;-83
2021/12/16 04:47:35;;;;;;;80.13;41.10;;;;;;;7.24;100.00;103487.94;5112646;28;20110;-83
2021/12/16 04:50:01;;;;;;;76.15;39.95;;;;;;;7.23;100.00;103493.09;5108969;28;20564;-84
2021/12/16 04:52:26;;;;;;;69.70;38.60;;;;;;;7.19;100.00;103494.69;5092367;28;20024;-84
2021/12/16 04:54:52;;;;;;;72.68;38.72;;;;;;;7.16;100.00;103499.78;5091413;28;20024;-84
2021/12/16 04:57:18;;;;;;;72.57;40.03;;;;;;;7.03;100.00;103484.66;5091688;28;20039;-84
2021/12/16 04:59:43;;;;;;;75.88;41.53;;;;;;;7.00;100.00;103495.78;5091878;28;20024;-84
2021/12/16 05:02:15;;;;;;;73.25;39.50;;;;;;;6.92;100.00;103497.22;5092384;28;20103;-84
2021/12/16 05:04:41;;;;;;;72.28;39.13;;;;;;;6.91;100.00;103494.59;5098609;28;20534;-84
2021/12/16 05:07:08;;;;;;;84.40;41.95;;;;;;;6.89;100.00;103489.34;5112819;28;20023;-85
2021/12/16 05:12:27;;;;;;;69.65;38.85;;;;;;;6.75;100.00;103494.06;5111867;28;20035;-84
2021/12/16 05:14:53;;;;;;;76.95;39.00;;;;;;;6.65;100.00;103494.56;5112245;28;20020;-84
2021/12/16 05:17:29;;;;;;;73.72;38.20;;;;;;;6.54;100.00;103488.16;5111724;28;20035;-84
2021/12/16 05:19:59;;;;;;;77.72;40.67;;;;;;;6.45;100.00;103485.22;5098737;28;20391;-84
2021/12/16 05:25:16;;;;;;;;;;;;;;;6.32;100.00;103502.91;5112133;28;20035;-84
2021/12/16 05:27:42;;;;;;;69.67;37.50;;;;;;;6.20;100.00;103498.97;5111872;28;19919;-84
2021/12/16 05:30:08;;;;;;;65.68;38.17;;;;;;;6.13;100.00;103500.47;5112442;28;20019;-84
2021/12/16 05:32:33;;;;;;;73.88;38.15;;;;;;;6.08;100.00;103501.97;5111403;28;20031;-83
2021/12/16 05:34:58;;;;;;;81.70;39.13;;;;;;;6.04;100.00;103510.47;5111103;28;20490;-84
2021/12/16 05:37:24;;;;;;;65.50;36.47;;;;;;;5.94;100.00;103508.34;5112149;28;20093;-84
2021/12/16 05:39:49;;;;;;;68.78;37.63;;;;;;;5.97;100.00;103516.25;5109336;28;20023;-84
2021/12/16 05:42:14;;;;;;;72.32;38.60;;;;;;;5.91;100.00;103514.25;5112089;28;20024;-84
2021/12/16 05:44:40;;;;;;;63.63;36.58;;;;;;;5.87;100.00;103523.63;5111718;28;20034;-84
2021/12/16 05:47:05;;;;;;;67.85;38.05;;;;;;;5.81;100.00;103527.69;5111512;28;20062;-84
2021/12/16 05:49:30;;;;;;;67.55;36.65;;;;;;;5.72;100.00;103519.53;5111858;28;20031;-84
2021/12/16 05:51:56;;;;;;;67.22;37.67;;;;;;;5.68;100.00;103528.03;5111808;28;20023;-84
2021/12/16 05:54:22;;;;;;;71.05;38.05;;;;;;;5.62;100.00;103541.59;5109670;28;20007;-84
2021/12/16 05:56:48;;;;;;;63.88;33.92;;;;;;;5.57;100.00;103540.53;5110329;28;20485;-84
2021/12/16 05:59:16;;;;;;;68.00;35.92;;;;;;;5.50;100.00;103539.41;5112180;28;20030;-84
2021/12/16 06:01:44;;;;;;;63.63;36.22;;;;;;;5.42;100.00;103553.72;5110908;28;20028;-84
2021/12/16 06:04:09;;;;;;;68.57;38.08;;;;;;;5.35;100.00;103543.94;5112005;28;20020;-83
2021/12/16 06:06:35;;;;;;;63.90;35.25;;;;;;;5.31;100.00;103545.53;5113399;28;20107;-83
2021/12/16 06:09:03;;;;;;;68.60;35.80;;;;;;;5.29;100.00;103551.44;5114028;28;20042;-84
2021/12/16 06:11:31;;;;;;;64.47;36.83;;;;;;;5.23;100.00;103558.94;5115953;28;20112;-84
2021/12/16 06:27:34;;;;;;;63.42;34.80;;;;;;;4.97;100.00;103557.84;5112468;28;20084;-84
2021/12/16 06:30:01;;;;;;;68.10;36.92;;;;;;;4.98;100.00;103564.81;5115249;28;20024;-84
2021/12/16 06:32:26;;;;;;;70.13;36.83;;;;;;;4.95;100.00;103567.25;5115467;28;20020;-84
2021/12/16 06:34:54;;;;;;;71.55;37.28;;;;;;;4.91;100.00;103574.88;5114783;28;20035;-84
2021/12/16 06:37:20;;;;;;;66.30;35.60;;;;;;;4.88;100.00;103569.56;5115589;28;20026;-84
2021/12/16 06:39:46;;;;;;;65.43;36.25;;;;;;;4.85;100.00;103568.56;5115047;28;20031;-84
2021/12/16 06:42:12;;;;;;;68.07;37.20;;;;;;;4.84;100.00;103571.94;5113443;28;20367;-84
2021/12/16 06:44:47;;;;;;;65.28;35.65;;;;;;;4.77;100.00;103567.31;5114847;28;20027;-84
2021/12/16 06:47:18;;;;;;;69.00;36.25;;;;;;;4.80;100.00;103575.22;5115519;28;20096;-84
2021/12/16 06:49:47;;;;;;;62.63;35.30;;;;;;;4.74;100.00;103573.25;5114169;28;20035;-84
2021/12/16 06:52:16;;;;;;;65.00;37.10;;;;;;;4.75;100.00;103574.13;5115204;28;20466;-84
2021/12/16 06:55:02;;;;;;;66.90;36.97;;;;;;;4.73;100.00;103576.63;5114510;28;20031;-84
2021/12/16 07:00:06;;;;;;;62.92;36.22;;;;;;;4.67;100.00;103574.66;5114677;28;20482;-84
2021/12/16 07:02:45;;;;;;;63.20;35.03;;;;;;;4.61;100.00;103578.66;5113259;28;20043;-84
2021/12/16 07:05:13;;;;;;;70.45;37.88;;;;;;;4.61;100.00;103589.00;5114830;28;20024;-84
2021/12/16 07:07:39;;;;;;;69.70;37.28;;;;;;;4.55;100.00;103579.28;5114586;28;20036;-84
2021/12/16 07:10:07;;;;;;;66.68;37.63;;;;;;;4.57;100.00;103581.94;5114233;28;20027;-84
2021/12/16 07:12:37;;;;;;;73.45;38.70;;;;;;;4.51;100.00;103586.81;5114615;28;20053;-84
2021/12/16 07:15:11;;;;;;;68.22;36.08;;;;;;;4.50;100.00;103603.16;5114823;28;20031;-84
2021/12/16 07:17:38;;;;;;;74.68;37.50;;;;;;;4.45;100.00;103598.66;5110002;28;20030;-84
2021/12/16 07:20:07;;;;;;;68.72;36.60;;;;;;;4.42;100.00;103608.84;5094770;28;20055;-84
2021/12/16 07:22:34;;;;;;;63.38;35.03;;;;;;;4.42;100.00;103616.59;5094284;28;20379;-84
2021/12/16 07:25:00;;;;;;;69.97;35.53;;;;;;;4.38;100.00;103612.13;5093313;28;20023;-84
2021/12/16 07:27:25;;;;;;;70.18;35.47;;;;;;;4.38;100.00;103616.38;5093801;28;20055;-84
2021/12/16 07:29:50;;;;;;;64.13;35.80;;;;;;;4.32;100.00;103622.16;5093969;28;20113;-84
2021/12/16 07:32:16;;;;;;;69.50;37.88;;;;;;;4.33;100.00;103631.66;5108286;28;20116;-85
2021/12/16 07:34:41;;;;;;;68.45;35.67;;;;;;;4.32;100.00;103636.78;5114000;28;20020;-84
2021/12/16 07:37:08;;;;;;;70.03;38.03;;;;;;;4.33;100.00;103639.41;5114447;28;20080;-84
2021/12/16 07:39:38;;;;;;;66.07;35.60;;;;;;;4.29;100.00;103641.78;5113504;28;20032;-83
2021/12/16 07:42:06;;;;;;;70.35;37.08;;;;;;;4.29;100.00;103645.25;5114244;28;20078;-84
2021/12/16 07:44:34;;;;;;;71.25;38.53;;;;;;;4.27;100.00;103648.56;5114001;28;20019;-84
2021/12/16 07:47:03;;;;;;;70.55;37.03;;;;;;;4.28;100.00;103645.16;5111678;28;20027;-84
2021/12/16 07:49:32;;;;;;;70.13;37.65;;;;;;;4.26;100.00;103647.69;5102195;28;20024;-84
2021/12/16 07:51:59;;;;;;;77.53;39.85;;;;;;;4.26;100.00;103657.16;5092471;28;20024;-84
2021/12/16 07:54:24;;;;;;;72.72;37.13;;;;;;;4.27;100.00;103664.94;5093749;28;20052;-84
2021/12/16 07:56:53;;;;;;;65.60;35.72;;;;;;;4.24;100.00;103667.38;5093222;28;20570;-84
2021/12/16 07:59:18;;;;;;;70.05;38.78;;;;;;;4.25;100.00;103684.66;5092730;28;20058;-84
2021/12/16 08:01:44;;;;;;;86.85;41.25;;;;;;;4.27;100.00;103684.72;5093979;28;20460;-84
2021/12/16 08:04:18;;;;;;;74.82;39.20;;;;;;;4.25;100.00;103686.34;5093564;28;20035;-83
2021/12/16 08:06:45;;;;;;;70.43;37.83;;;;;;;4.25;100.00;103694.09;5092416;28;20904;-84
2021/12/16 08:09:10;;;;;;;69.03;38.63;;;;;;;4.22;100.00;103693.16;5094607;28;20597;-84
2021/12/16 08:11:38;;;;;;;69.30;36.10;;;;;;;4.19;100.00;103694.69;5113398;28;20035;-83
2021/12/16 08:14:04;;;;;;;68.30;35.38;;;;;;;4.19;100.00;103695.59;5113068;28;20027;-84
2021/12/16 08:16:31;;;;;;;72.13;36.85;;;;;;;4.14;100.00;103697.03;5111262;28;20034;-84
2021/12/16 08:18:57;;;;;;;69.72;38.25;;;;;;;4.19;100.00;103705.03;5113371;28;20463;-83
2021/12/16 08:21:27;;;;;;;78.43;38.90;;;;;;;4.20;100.00;103705.09;5112804;28;20114;-84
2021/12/16 08:23:53;;;;;;;75.40;37.22;;;;;;;4.21;100.00;103708.56;5113216;28;20095;-84
2021/12/16 08:26:18;;;;;;;75.53;38.33;;;;;;;4.22;100.00;103712.94;5111558;28;20119;-84
2021/12/16 08:28:44;;;;;;;76.53;38.85;;;;;;;4.26;100.00;103720.00;5111946;28;20059;-84
2021/12/16 08:31:10;;;;;;;71.90;38.80;;;;;;;4.22;100.00;103713.81;5113501;28;20081;-84
2021/12/16 08:33:38;;;;;;;78.65;38.42;;;;;;;4.25;100.00;103717.34;5113169;28;20020;-85
2021/12/16 08:36:04;;;;;;;78.30;38.95;;;;;;;4.29;100.00;103724.44;5112353;28;20031;-84
2021/12/16 08:38:30;;;;;;;84.63;40.47;;;;;;;4.24;100.00;103721.63;5112749;28;20028;-84
2021/12/16 08:40:59;;;;;;;79.28;39.97;;;;;;;4.25;100.00;103727.66;5110691;28;20025;-84
2021/12/16 08:43:25;;;;;;;80.07;39.75;;;;;;;4.27;100.00;103731.22;5112251;28;20057;-84
2021/12/16 08:45:51;;;;;;;80.07;38.85;;;;;;;4.29;100.00;103733.06;5113006;28;20110;-84
2021/12/16 08:48:16;;;;;;;80.65;40.30;;;;;;;4.31;100.00;103723.69;5111331;28;20054;-84
2021/12/16 08:50:45;;;;;;;87.90;41.70;;;;;;;4.35;100.00;103728.19;5112492;28;20532;-84
2021/12/16 08:53:12;;;;;;;81.03;39.60;;;;;;;4.35;100.00;103725.63;5112941;28;20031;-84
2021/12/16 08:55:40;;;;;;;76.57;38.50;;;;;;;4.43;100.00;103746.66;5106572;28;20024;-84
2021/12/16 08:58:05;;;;;;;85.05;42.08;;;;;;;4.47;100.00;103733.94;5092271;28;20031;-84
2021/12/16 09:00:36;;;;;;;97.15;45.25;;;;;;;4.53;100.00;103741.09;5092318;28;20032;-84
2021/12/16 09:03:02;;;;;;;94.43;43.65;;;;;;;4.58;100.00;103749.09;5091765;28;20379;-84
2021/12/16 09:05:28;;;;;;;83.10;43.05;;;;;;;4.60;100.00;103760.38;5092117;28;20028;-84
2021/12/16 09:07:54;;;;;;;88.82;43.08;;;;;;;4.61;100.00;103752.69;5092122;28;20028;-84
2021/12/16 09:10:23;;;;;;;83.32;42.00;;;;;;;4.65;100.00;103757.19;5094513;28;20530;-84
2021/12/16 09:13:00;;;;;;;85.00;40.95;;;;;;;4.69;100.00;103759.09;5112548;28;20477;-84
2021/12/16 09:15:26;;;;;;;85.95;41.83;;;;;;;4.71;100.00;103756.63;5112715;28;20024;-85
2021/12/16 09:17:52;;;;;;;81.35;41.95;;;;;;;4.77;100.00;103754.28;5111417;28;20451;-84
2021/12/16 09:20:18;;;;;;;79.93;41.30;;;;;;;4.85;100.00;103759.84;5112612;28;20027;-84
2021/12/16 09:22:43;;;;;;;86.00;43.88;;;;;;;4.92;100.00;103760.19;5111969;28;20024;-84
2021/12/16 09:25:10;;;;;;;90.40;45.33;;;;;;;4.98;100.00;103756.13;5109630;28;20015;-84
2021/12/16 09:27:36;;;;;;;91.25;44.92;;;;;;;5.01;100.00;103757.16;5109817;28;20059;-85
2021/12/16 09:30:06;;;;;;;110.45;51.30;;;;;;;5.16;100.00;103751.78;5112511;28;20023;-84
2021/12/16 09:32:32;;;;;;;116.70;52.15;;;;;;;5.19;100.00;103749.31;5111342;28;20502;-84
2021/12/16 09:34:58;;;;;;;133.45;59.88;;;;;;;5.44;100.00;103758.19;5111936;28;20467;-84
2021/12/16 09:37:24;;;;;;;118.47;53.85;;;;;;;5.43;100.00;103753.81;5112055;28;20363;-84
2021/12/16 09:39:49;;;;;;;139.57;59.90;;;;;;;5.58;100.00;103751.91;5110200;28;20102;-84
2021/12/16 09:42:15;;;;;;;163.25;65.13;;;;;;;5.66;100.00;103760.00;5111735;28;20098;-84
2021/12/16 09:44:40;;;;;;;149.52;61.60;;;;;;;5.72;100.00;103770.63;5111062;28;20041;-84
2021/12/16 09:47:09;;;;;;;141.75;60.90;;;;;;;5.82;100.00;103765.94;5112403;28;20027;-84
2021/12/16 09:49:35;;;;;;;162.77;63.97;;;;;;;5.93;100.00;103760.38;5111765;28;20430;-84
2021/12/16 09:52:03;;;;;;;139.52;59.60;;;;;;;5.92;100.00;103769.81;5111003;28;20049;-85
2021/12/16 09:54:32;;;;;;;137.50;59.03;;;;;;;5.94;100.00;103768.19;5110708;28;20035;-84
2021/12/16 09:56:58;;;;;;;167.00;68.93;;;;;;;6.09;100.00;103761.06;5111953;28;20047;-84
2021/12/16 09:59:26;;;;;;;176.60;70.45;;;;;;;6.15;100.00;103757.84;5111514;28;20075;-84
2021/12/16 10:01:53;;;;;;;180.88;70.85;;;;;;;6.22;100.00;103761.56;5111868;28;20035;-84
2021/12/16 10:04:21;;;;;;;196.38;77.38;;;;;;;6.36;100.00;103759.53;5111931;28;20019;-84
2021/12/16 10:06:51;;;;;;;208.25;80.38;;;;;;;6.40;100.00;103761.44;5110961;28;20074;-84
2021/12/16 10:09:18;;;;;;;208.18;81.78;;;;;;;6.46;100.00;103766.88;5107498;28;20028;-84
2021/12/16 10:11:48;;;;;;;225.57;84.20;;;;;;;6.61;100.00;103762.31;5091175;28;20024;-84
2021/12/16 10:19:28;;;;;;;227.55;84.35;;;;;;;6.95;100.00;103759.28;5091422;28;20035;-84
2021/12/16 10:21:55;;;;;;;236.48;88.65;;;;;;;7.14;100.00;103760.88;5090851;28;20024;-84
2021/12/16 10:24:25;;;;;;;228.55;88.47;;;;;;;7.24;100.00;103770.75;5093234;28;20034;-85
2021/12/16 10:27:27;;;;;;;240.10;88.82;;;;;;;7.35;100.00;103773.75;5105266;28;20055;-84
2021/12/16 10:30:00;;;;;;;230.48;86.63;;;;;;;7.53;100.00;103764.88;5028923;28;20037;-84
2021/12/16 10:32:55;;;;;;;224.57;87.63;;;;;;;7.57;100.00;103769.34;5081961;28;20053;-85
2021/12/16 10:35:30;;;;;;;188.35;77.78;;;;;;;7.59;100.00;103765.09;5073371;28;20048;-85
2021/12/16 10:37:59;;;;;;;183.30;75.72;;;;;;;7.62;100.00;103757.38;5090883;28;20459;-85
2021/12/16 10:40:30;;;;;;;179.57;76.25;;;;;;;7.72;100.00;103768.19;5090514;28;20107;-84
2021/12/16 10:42:57;;;;;;;177.40;75.80;;;;;;;7.87;100.00;103751.34;5090397;28;20028;-85
2021/12/16 10:45:26;;;;;;;185.65;77.43;;;;;;;8.03;100.00;103756.22;5091394;28;20099;-84
2021/12/16 10:48:26;;;;;;;172.18;74.13;;;;;;;8.09;100.00;103756.44;5090253;28;20028;-84
2021/12/16 10:51:16;;;;;;;149.88;68.60;;;;;;;8.19;100.00;103755.91;5091137;28;20024;-84
2021/12/16 10:53:59;;;;;;;125.38;63.35;;;;;;;8.31;100.00;103755.44;5092416;28;20036;-84
2021/12/16 10:56:32;;;;;;;120.03;58.67;;;;;;;8.44;100.00;103757.63;5094077;28;20031;-84
2021/12/16 10:59:04;;;;;;;104.10;55.08;;;;;;;8.58;100.00;103751.97;5094286;28;20529;-84
2021/12/16 11:01:43;;;;;;;97.03;50.95;;;;;;;8.64;100.00;103758.25;5094769;28;20107;-84
2021/12/16 11:04:33;;;;;;;77.00;41.08;;;;;;;8.63;100.00;103756.50;5093952;28;20058;-84
2021/12/16 11:07:09;;;;;;;82.13;41.97;;;;;;;8.62;100.00;103764.22;5094408;28;20042;-84
2021/12/16 11:10:01;;;;;;;74.50;43.22;;;;;;;8.74;100.00;103754.22;5114225;28;20093;-84
2021/12/16 11:12:35;;;;;;;65.00;36.42;;;;;;;8.80;100.00;103763.94;5114157;28;20038;-84
2021/12/16 11:15:15;;;;;;;56.30;31.70;;;;;;;8.83;100.00;103769.22;5114584;28;20058;-84
2021/12/16 11:17:45;;;;;;;54.80;31.25;;;;;;;8.90;100.00;103765.97;5113582;28;20039;-85
2021/12/16 11:20:36;;;;;;;51.42;30.55;;;;;;;8.96;100.00;103765.25;5114816;28;20030;-84
2021/12/16 11:23:07;;;;;;;46.30;28.52;;;;;;;8.96;100.00;103766.16;5101140;28;20107;-84
2021/12/16 11:25:36;;;;;;;52.20;29.50;;;;;;;9.03;100.00;103770.72;5093485;28;20044;-84
2021/12/16 11:28:10;;;;;;;52.08;32.08;;;;;;;9.07;100.00;103769.06;5094237;28;20028;-84
2021/12/16 11:30:45;;;;;;;;;;;;;;;9.08;100.00;103774.31;5093653;28;20036;-84
2021/12/16 11:33:18;;;;;;;43.17;25.92;;;;;;;9.01;100.00;103759.34;5094253;28;19960;-84
2021/12/16 11:35:47;;;;;;;48.45;27.02;;;;;;;8.97;100.00;103762.72;5093532;28;20016;-84
2021/12/16 11:38:29;;;;;;;45.00;28.45;;;;;;;8.90;100.00;103769.47;5096016;28;20028;-83
2021/12/16 11:41:15;;;;;;;55.42;30.92;;;;;;;8.87;100.00;103763.28;5093596;28;20063;-84
2021/12/16 11:43:53;;;;;;;50.95;30.70;;;;;;;8.88;100.00;103765.91;5093289;28;20536;-84
2021/12/16 11:46:24;;;;;;;52.97;32.05;;;;;;;8.94;100.00;103761.75;5092898;28;20024;-84
2021/12/16 11:48:53;;;;;;;49.25;29.13;;;;;;;8.98;100.00;103753.19;5093537;28;20020;-84
2021/12/16 11:51:27;;;;;;;55.70;30.35;;;;;;;9.06;100.00;103752.59;5093194;28;20047;-84
2021/12/16 11:53:57;;;;;;;45.08;28.75;;;;;;;9.17;100.00;103754.63;5093561;28;20028;-85
2021/12/16 11:57:01;;;;;;;39.90;23.60;;;;;;;9.37;100.00;103754.31;5093874;28;20093;-84
2021/12/16 11:59:42;;;;;;;35.42;19.58;;;;;;;9.56;100.00;103758.31;5060459;28;20054;-84
2021/12/16 12:02:33;;;;;;;29.35;19.15;;;;;;;9.79;100.00;103755.47;5093180;28;20081;-84
2021/12/16 12:05:16;;;;;;;39.15;20.35;;;;;;;10.05;100.00;103746.56;5092763;28;20024;-84
2021/12/16 12:07:45;;;;;;;38.80;21.30;;;;;;;10.21;100.00;103757.41;5093074;28;20034;-84
2021/12/16 12:10:11;;;;;;;34.90;22.25;;;;;;;10.30;100.00;103752.44;5093499;28;20024;-83
2021/12/16 12:12:46;;;;;;;31.40;20.05;;;;;;;10.34;100.00;103750.78;5091992;28;20027;-84
2021/12/16 12:15:13;;;;;;;33.55;19.42;;;;;;;10.29;100.00;103761.97;5108568;28;20036;-84
2021/12/16 12:17:52;;;;;;;37.30;19.65;;;;;;;10.30;100.00;103753.31;5112919;28;20035;-84
2021/12/16 12:20:25;;;;;;;27.63;17.70;;;;;;;10.27;98.93;103757.59;5112766;27;20019;-84
2021/12/16 12:22:51;;;;;;;30.08;18.92;;;;;;;10.25;100.00;103754.88;5113570;28;20028;-85
2021/12/16 12:25:17;;;;;;;28.92;19.33;;;;;;;10.32;100.00;103759.44;5113276;28;20016;-84
2021/12/16 12:27:43;;;;;;;33.47;17.95;;;;;;;10.39;100.00;103747.41;5110879;28;20035;-84
2021/12/16 12:30:09;;;;;;;25.63;16.15;;;;;;;10.31;97.65;103743.75;5111195;28;20024;-83
2021/12/16 12:32:41;;;;;;;24.58;16.08;;;;;;;10.29;98.71;103750.66;5113370;28;20023;-84
2021/12/16 12:35:14;;;;;;;25.42;16.75;;;;;;;10.27;99.24;103747.16;5112689;28;20046;-85
2021/12/16 12:37:41;;;;;;;;;;;;;;;10.27;100.00;103745.41;5113197;28;20352;-84
2021/12/16 12:40:14;;;;;;;27.08;16.55;;;;;;;10.12;99.59;103739.78;5113161;28;20049;-84
2021/12/16 12:42:41;;;;;;;27.15;17.90;;;;;;;9.95;100.00;103736.78;5110797;28;20034;-84
2021/12/16 12:45:11;;;;;;;24.85;17.17;;;;;;;9.92;99.99;103741.91;5112922;28;20020;-84
2021/12/16 12:47:40;;;;;;;32.05;17.95;;;;;;;9.97;100.00;103747.22;5112251;28;20455;-84
2021/12/16 12:50:19;;;;;;;25.85;17.50;;;;;;;10.07;100.00;103746.59;5112842;28;20470;-84
2021/12/16 12:52:48;;;;;;;32.17;18.17;;;;;;;10.05;100.00;103746.56;5112537;28;20030;-84
2021/12/16 12:55:18;;;;;;;28.08;18.02;;;;;;;10.05;100.00;103750.91;5111932;28;20425;-84
2021/12/16 12:57:46;;;;;;;30.00;18.33;;;;;;;10.16;100.00;103738.13;5100390;28;20286;-84
2021/12/16 13:00:31;;;;;;;26.35;16.95;;;;;;;10.26;100.00;103742.75;5092352;28;20537;-84
2021/12/16 13:03:06;;;;;;;28.52;17.38;;;;;;;10.30;100.00;103736.81;5091469;28;20047;-85
2021/12/16 13:05:31;;;;;;;27.90;16.95;;;;;;;10.30;97.22;103731.59;5091987;28;20028;-84
2021/12/16 13:08:01;;;;;;;26.00;16.88;;;;;;;10.32;97.55;103737.69;5091946;28;20032;-85
2021/12/16 13:10:56;;;;;;;24.85;15.90;;;;;;;10.33;99.22;103731.63;5091499;28;20024;-84
2021/12/16 13:16:11;;;;;;;26.15;16.00;;;;;;;10.28;98.50;103741.09;5111017;27;20040;-85
2021/12/16 13:24:31;;;;;;;20.80;13.33;;;;;;;10.13;98.16;103741.53;5111977;28;19915;-84
2021/12/16 13:30:19;;;;;;;19.95;12.63;;;;;;;10.21;94.93;103726.09;5100184;28;20035;-83
2021/12/16 13:33:24;;;;;;;19.58;11.45;;;;;;;10.33;94.94;103729.03;5111814;28;20034;-84
2021/12/16 13:36:03;;;;;;;19.02;10.65;;;;;;;10.40;91.44;103733.56;5112090;28;20020;-84
2021/12/16 13:38:45;;;;;;;15.57;9.75;;;;;;;10.46;91.40;103735.41;5111319;28;20035;-84
2021/12/16 13:41:23;;;;;;;18.80;9.80;;;;;;;10.43;89.39;103735.34;5112029;28;20024;-84
2021/12/16 13:44:06;;;;;;;16.70;10.05;;;;;;;10.39;90.18;103738.72;5105173;28;20467;-84
2021/12/16 13:46:59;;;;;;;18.60;10.18;;;;;;;10.29;91.98;103735.88;5091802;28;20025;-84
2021/12/16 13:58:31;;;;;;;19.80;12.00;;;;;;;9.75;93.18;103735.38;5090231;28;20039;-83
2021/12/16 14:04:06;;;;;;;17.73;9.38;;;;;;;9.66;90.90;103751.66;5091753;28;20043;-84
2021/12/16 14:07:12;;;;;;;14.98;9.77;;;;;;;9.66;91.85;103740.34;5090867;28;20372;-84
2021/12/16 14:10:05;;;;;;;21.13;10.75;;;;;;;9.65;92.06;103749.88;5091186;28;20034;-84